Time;durP1;ratioP1;P1;durP2;ratioP2;P2;SDS_P1;SDS_P2;PMS_P1;PMS_P2;Temp;Humidity;BMP_temperature;BMP_pressure;BME280_temperature;BME280_humidity;BME280_pressure;Samples;Min_cycle;Max_cycle;Signal;HPM_P1;HPM_P2
2023/10/09 00:01:04;;;;;;;6.73;3.60;;;11.80;99.90;;;;;;5073386;28;20538;-70
2023/10/09 00:03:32;;;;;;;7.57;3.97;;;11.70;99.90;;;;;;5067673;28;20546;-69
2023/10/09 00:05:59;;;;;;;11.90;4.10;;;11.70;99.90;;;;;;5067862;28;20525;-69
2023/10/09 00:08:30;;;;;;;6.90;3.53;;;11.70;99.90;;;;;;5066726;28;20527;-69
2023/10/09 00:11:13;;;;;;;6.27;3.90;;;11.90;99.90;;;;;;5066918;28;20527;-69
2023/10/09 00:13:48;;;;;;;6.13;4.17;;;11.70;99.90;;;;;;5073407;28;20451;-69
2023/10/09 00:16:23;;;;;;;5.40;3.83;;;11.80;99.90;;;;;;5073729;28;20984;-69
2023/10/09 00:18:53;;;;;;;7.57;4.60;;;11.80;99.90;;;;;;5073596;28;20936;-69
2023/10/09 00:21:22;;;;;;;8.40;4.00;;;11.80;99.90;;;;;;5068781;28;20460;-69
2023/10/09 00:23:53;;;;;;;9.30;4.33;;;11.80;99.90;;;;;;5073662;28;20525;-69
2023/10/09 00:26:20;;;;;;;15.00;4.20;;;11.80;99.90;;;;;;5071780;28;20474;-69
2023/10/09 00:28:47;;;;;;;9.40;3.90;;;11.80;99.90;;;;;;5069192;28;20852;-69
2023/10/09 00:31:15;;;;;;;4.50;3.50;;;11.80;99.90;;;;;;5063327;28;20996;-69
2023/10/09 00:33:43;;;;;;;7.47;4.53;;;11.80;99.90;;;;;;5069371;28;20509;-69
2023/10/09 00:36:14;;;;;;;8.70;4.20;;;11.80;99.90;;;;;;5072622;28;20498;-69
2023/10/09 00:38:45;;;;;;;11.60;4.80;;;11.80;99.90;;;;;;5070110;28;20479;-69
2023/10/09 00:41:19;;;;;;;7.90;3.73;;;11.80;99.90;;;;;;5073139;28;20872;-68
2023/10/09 00:43:46;;;;;;;6.20;4.07;;;11.80;99.90;;;;;;5068613;28;20793;-69
2023/10/09 00:46:23;;;;;;;6.30;3.80;;;11.80;99.90;;;;;;5070884;28;20478;-69
2023/10/09 00:48:52;;;;;;;7.07;3.70;;;11.80;99.90;;;;;;5068420;28;21040;-69
2023/10/09 00:51:22;;;;;;;6.83;4.13;;;11.80;99.90;;;;;;5070719;28;20833;-69
2023/10/09 00:53:51;;;;;;;6.50;4.03;;;11.80;99.90;;;;;;5071315;28;20537;-69
2023/10/09 00:56:28;;;;;;;5.47;3.80;;;11.80;99.90;;;;;;5067277;28;20554;-69
2023/10/09 00:59:00;;;;;;;9.47;4.33;;;11.80;99.90;;;;;;5066107;28;20453;-69
2023/10/09 01:01:34;;;;;;;7.20;4.37;;;11.70;99.90;;;;;;5070334;28;20501;-69
2023/10/09 01:04:12;;;;;;;7.63;4.37;;;11.70;99.90;;;;;;5072424;28;20491;-69
2023/10/09 01:06:43;;;;;;;5.30;3.83;;;11.70;99.90;;;;;;5066966;28;20914;-68
2023/10/09 01:09:13;;;;;;;9.50;5.00;;;11.70;99.90;;;;;;5071401;28;20865;-68
2023/10/09 01:11:48;;;;;;;13.80;4.00;;;11.70;99.90;;;;;;5070536;28;20455;-68
2023/10/09 01:14:16;;;;;;;7.73;4.00;;;11.60;99.90;;;;;;5068341;28;20812;-68
2023/10/09 01:16:43;;;;;;;11.00;4.20;;;11.60;99.90;;;;;;5070531;28;20490;-68
2023/10/09 01:19:23;;;;;;;7.07;4.30;;;11.50;99.90;;;;;;5071772;28;20454;-68
2023/10/09 01:21:51;;;;;;;7.07;4.23;;;11.50;99.90;;;;;;5071036;28;20525;-69
2023/10/09 01:24:20;;;;;;;8.73;3.80;;;11.40;99.90;;;;;;5070654;28;20830;-69
2023/10/09 01:26:49;;;;;;;7.20;4.03;;;11.40;99.90;;;;;;5072148;28;20475;-68
2023/10/09 01:29:18;;;;;;;6.00;4.03;;;11.30;99.90;;;;;;5071384;28;20537;-68
2023/10/09 01:35:15;;;;;;;4.90;3.80;;;11.20;99.90;;;;;;5070733;28;20453;-69
2023/10/09 01:37:49;;;;;;;5.73;3.60;;;11.20;99.90;;;;;;5071020;28;20455;-69
2023/10/09 01:40:25;;;;;;;5.60;3.73;;;11.20;99.90;;;;;;5070089;28;20521;-68
2023/10/09 01:42:51;;;;;;;6.20;3.50;;;11.10;99.90;;;;;;5071752;28;20978;-68
2023/10/09 01:45:27;;;;;;;8.27;4.20;;;11.10;99.90;;;;;;5070438;28;20440;-69
2023/10/09 01:47:55;;;;;;;11.03;3.97;;;11.00;99.90;;;;;;5071069;28;20483;-69
2023/10/09 01:50:27;;;;;;;9.17;3.90;;;11.00;99.90;;;;;;5067581;28;20487;-68
2023/10/09 01:52:53;;;;;;;5.40;4.10;;;11.00;99.90;;;;;;5071030;28;20525;-69
2023/10/09 01:55:34;;;;;;;11.83;4.23;;;11.00;99.90;;;;;;5070687;28;20452;-68
2023/10/09 01:58:05;;;;;;;6.20;4.20;;;10.90;99.90;;;;;;5069949;28;20505;-68
2023/10/09 02:00:35;;;;;;;6.13;4.40;;;11.00;99.90;;;;;;5066250;28;20447;-68
2023/10/09 02:03:05;;;;;;;5.07;4.00;;;11.00;99.90;;;;;;5070351;28;21024;-69
2023/10/09 02:05:33;;;;;;;13.10;4.37;;;11.00;99.90;;;;;;5065959;28;20954;-69
2023/10/09 02:08:02;;;;;;;5.70;4.47;;;11.00;99.90;;;;;;5070324;28;20484;-69
2023/10/09 02:10:32;;;;;;;8.13;3.80;;;10.90;99.90;;;;;;5065315;28;20487;-69
2023/10/09 02:13:06;;;;;;;8.10;4.40;;;10.90;99.90;;;;;;5070480;28;20452;-69
2023/10/09 02:15:53;;;;;;;14.70;4.43;;;10.90;99.90;;;;;;5069917;28;20904;-69
2023/10/09 02:18:26;;;;;;;5.60;4.00;;;10.90;99.90;;;;;;5069407;28;20446;-69
2023/10/09 02:21:00;;;;;;;7.90;4.27;;;10.90;99.90;;;;;;5069934;28;20474;-69
2023/10/09 02:23:39;;;;;;;11.10;4.20;;;10.80;99.90;;;;;;5070069;28;20440;-69
2023/10/09 02:26:08;;;;;;;5.70;4.27;;;10.80;99.90;;;;;;5069804;28;20487;-69
2023/10/09 02:28:35;;;;;;;10.80;4.33;;;10.80;99.90;;;;;;5070456;28;20487;-69
2023/10/09 02:31:03;;;;;;;5.63;3.60;;;10.90;99.90;;;;;;5069413;28;20459;-69
2023/10/09 02:33:36;;;;;;;5.60;3.90;;;10.90;99.90;;;;;;5070866;28;20431;-69
2023/10/09 02:36:06;;;;;;;5.37;4.30;;;10.90;99.90;;;;;;5069800;28;21252;-69
2023/10/09 02:38:35;;;;;;;6.87;4.33;;;10.90;99.90;;;;;;5067592;28;20531;-69
2023/10/09 02:41:20;;;;;;;5.77;3.50;;;10.90;99.90;;;;;;5067846;28;20908;-69
2023/10/09 02:43:50;;;;;;;6.80;3.90;;;10.90;99.90;;;;;;5067083;28;20500;-69
2023/10/09 02:46:19;;;;;;;5.07;3.63;;;10.90;99.90;;;;;;5068743;28;20560;-69
2023/10/09 02:48:50;;;;;;;4.73;3.87;;;10.90;99.90;;;;;;5067858;28;20565;-69
2023/10/09 02:51:30;;;;;;;5.17;3.77;;;10.90;99.90;;;;;;5070154;28;20502;-69
2023/10/09 02:53:59;;;;;;;9.20;4.20;;;11.00;99.90;;;;;;5068097;28;21039;-69
2023/10/09 02:56:36;;;;;;;5.33;3.70;;;10.90;99.90;;;;;;5069474;28;20467;-69
2023/10/09 02:59:06;;;;;;;10.70;4.00;;;10.90;99.90;;;;;;5068967;28;20452;-69
2023/10/09 03:01:34;;;;;;;7.70;5.23;;;10.90;99.90;;;;;;5070412;28;20439;-69
2023/10/09 03:04:02;;;;;;;7.07;4.30;;;10.90;99.90;;;;;;5069348;28;20985;-69
2023/10/09 03:06:30;;;;;;;5.57;4.03;;;10.90;99.90;;;;;;5069037;28;20479;-69
2023/10/09 03:08:57;;;;;;;7.40;3.73;;;10.90;99.90;;;;;;5070352;28;20483;-69
2023/10/09 03:11:26;;;;;;;9.13;4.03;;;10.90;99.90;;;;;;5076573;28;20454;-69
2023/10/09 03:13:53;;;;;;;5.53;3.90;;;10.90;99.90;;;;;;5076718;28;20533;-69
2023/10/09 03:16:21;;;;;;;5.40;3.63;;;10.90;99.90;;;;;;5076390;28;20506;-69
2023/10/09 03:18:49;;;;;;;7.87;3.87;;;10.90;99.90;;;;;;5076353;28;20929;-69
2023/10/09 03:21:16;;;;;;;6.00;3.90;;;11.00;99.90;;;;;;5070102;28;20466;-69
2023/10/09 03:23:44;;;;;;;5.50;4.07;;;10.90;99.90;;;;;;5076880;28;20548;-69
2023/10/09 03:26:10;;;;;;;4.47;3.83;;;10.90;99.90;;;;;;5078564;28;20566;-69
2023/10/09 03:28:37;;;;;;;6.93;3.57;;;11.00;99.90;;;;;;5074049;28;20533;-69
2023/10/09 03:31:06;;;;;;;4.70;3.67;;;11.00;99.90;;;;;;5076172;28;20965;-69
2023/10/09 03:33:35;;;;;;;9.33;3.77;;;10.90;99.90;;;;;;5076162;28;20451;-69
2023/10/09 03:36:07;;;;;;;10.83;3.90;;;10.90;99.90;;;;;;5073370;28;20479;-69
2023/10/09 03:38:34;;;;;;;6.70;3.87;;;10.90;99.90;;;;;;5076024;28;20451;-69
2023/10/09 03:41:05;;;;;;;9.63;4.00;;;10.90;99.90;;;;;;5075615;28;20459;-69
2023/10/09 03:43:34;;;;;;;7.63;3.77;;;10.90;99.90;;;;;;5075692;28;20817;-69
2023/10/09 03:46:03;;;;;;;5.27;3.90;;;10.90;99.90;;;;;;5075834;28;20497;-69
2023/10/09 03:48:35;;;;;;;11.00;5.07;;;10.90;99.90;;;;;;5075724;28;20505;-69
2023/10/09 03:51:10;;;;;;;6.10;4.27;;;10.90;99.90;;;;;;5075514;28;20452;-69
2023/10/09 03:53:38;;;;;;;6.60;3.93;;;10.90;99.90;;;;;;5077120;28;20447;-69
2023/10/09 03:56:11;;;;;;;7.20;3.73;;;10.90;99.90;;;;;;5076326;28;20483;-69
2023/10/09 03:58:39;;;;;;;4.93;4.20;;;10.90;99.90;;;;;;5074024;28;20447;-69
2023/10/09 04:01:10;;;;;;;7.00;4.57;;;10.90;99.90;;;;;;5075859;28;20722;-69
2023/10/09 04:03:38;;;;;;;7.00;4.20;;;10.90;99.90;;;;;;5075521;28;20467;-69
2023/10/09 04:06:09;;;;;;;10.30;4.50;;;11.00;99.90;;;;;;5074874;28;21354;-69
2023/10/09 04:08:39;;;;;;;10.93;4.73;;;11.00;99.90;;;;;;5075836;28;20485;-69
2023/10/09 04:11:16;;;;;;;4.77;4.27;;;10.90;99.90;;;;;;5074186;28;20980;-69
2023/10/09 04:13:45;;;;;;;9.10;4.50;;;10.90;99.90;;;;;;5074956;28;20535;-69
2023/10/09 04:16:33;;;;;;;12.47;4.47;;;10.90;99.90;;;;;;5076173;28;20515;-69
2023/10/09 04:19:05;;;;;;;8.70;4.70;;;11.00;99.90;;;;;;5074178;28;20956;-69
2023/10/09 04:21:36;;;;;;;5.57;4.43;;;11.00;99.90;;;;;;5072691;28;20521;-69
2023/10/09 04:26:58;;;;;;;9.50;4.43;;;11.00;99.90;;;;;;5058660;28;20995;-69
2023/10/09 04:29:28;;;;;;;9.03;4.27;;;11.00;99.90;;;;;;5072175;28;20513;-69
2023/10/09 04:31:56;;;;;;;8.47;5.10;;;11.00;99.90;;;;;;5072678;28;20452;-69
2023/10/09 04:34:22;;;;;;;7.80;5.20;;;11.00;99.90;;;;;;5071743;28;20463;-69
2023/10/09 04:36:51;;;;;;;8.37;5.10;;;11.00;99.90;;;;;;5071638;28;20702;-69
2023/10/09 04:44:51;;;;;;;8.70;4.90;;;10.90;99.90;;;;;;5065142;28;20448;-69
2023/10/09 04:47:25;;;;;;;5.27;4.77;;;10.90;99.90;;;;;;5068943;28;20467;-69
2023/10/09 04:50:02;;;;;;;7.83;4.50;;;10.90;99.90;;;;;;5072357;28;20537;-69
2023/10/09 04:55:18;;;;;;;7.47;5.17;;;10.90;99.90;;;;;;5070776;28;20448;-68
2023/10/09 04:58:00;;;;;;;9.47;4.57;;;10.90;99.90;;;;;;5071279;28;20467;-69
2023/10/09 05:00:46;;;;;;;8.70;5.03;;;10.90;99.90;;;;;;5070833;28;20447;-69
2023/10/09 05:03:26;;;;;;;14.43;5.03;;;11.00;99.90;;;;;;5069331;28;21026;-69
2023/10/09 05:05:59;;;;;;;9.90;4.60;;;11.00;99.90;;;;;;5068796;28;20473;-69
2023/10/09 05:08:29;;;;;;;13.13;5.00;;;11.00;99.90;;;;;;5070911;28;20479;-69
2023/10/09 05:11:23;;;;;;;5.00;4.37;;;11.00;99.90;;;;;;5070614;28;20790;-69
2023/10/09 05:14:11;;;;;;;9.93;4.37;;;11.00;99.90;;;;;;5068339;28;20455;-69
2023/10/09 05:16:37;;;;;;;10.30;4.53;;;11.00;99.90;;;;;;5069546;28;20451;-69
2023/10/09 05:19:06;;;;;;;7.50;5.40;;;11.00;99.90;;;;;;5070657;28;20458;-69
2023/10/09 05:21:44;;;;;;;15.73;5.17;;;11.10;99.90;;;;;;5072167;28;20536;-68
2023/10/09 05:24:23;;;;;;;8.87;4.83;;;11.10;99.90;;;;;;5072812;28;20447;-69
2023/10/09 05:27:12;;;;;;;6.30;4.77;;;11.10;99.90;;;;;;5071527;28;20528;-69
2023/10/09 05:29:48;;;;;;;11.27;5.10;;;11.00;99.90;;;;;;5071606;28;20590;-69
2023/10/09 05:32:27;;;;;;;8.90;5.13;;;10.90;99.90;;;;;;5068982;28;20470;-69
2023/10/09 05:35:15;;;;;;;6.80;4.43;;;11.00;99.90;;;;;;5068645;28;21036;-69
2023/10/09 05:37:43;;;;;;;12.17;4.67;;;11.00;99.90;;;;;;5066942;28;20964;-70
2023/10/09 05:40:23;;;;;;;7.40;5.17;;;11.00;99.90;;;;;;5070104;28;20454;-69
2023/10/09 05:42:59;;;;;;;11.10;5.20;;;11.00;99.90;;;;;;5068931;28;20447;-69
2023/10/09 05:54:11;;;;;;;15.50;6.60;;;11.20;99.90;;;;;;5063472;28;20811;-69
2023/10/09 06:04:49;;;;;;;13.10;7.70;;;11.20;99.90;;;;;;5068515;28;20968;-68
2023/10/09 06:07:23;;;;;;;14.20;7.43;;;11.30;99.90;;;;;;5069828;28;20509;-69
2023/10/09 06:09:52;;;;;;;15.13;8.07;;;11.30;99.90;;;;;;5070924;28;20587;-68
2023/10/09 06:15:51;;;;;;;15.53;8.83;;;11.40;99.90;;;;;;5086126;28;21107;-70
2023/10/09 06:18:25;;;;;;;20.03;7.87;;;11.40;99.90;;;;;;5066763;28;20470;-68
2023/10/09 06:21:33;;;;;;;14.13;8.43;;;11.40;99.90;;;;;;5067070;28;20441;-68
2023/10/09 06:24:14;;;;;;;19.57;8.80;;;11.40;99.90;;;;;;5062331;28;20430;-68
2023/10/09 06:26:52;;;;;;;19.50;8.27;;;11.40;99.90;;;;;;5063678;28;20471;-68
2023/10/09 06:29:35;;;;;;;13.57;8.43;;;11.40;99.90;;;;;;5063664;28;20455;-68
2023/10/09 06:32:23;;;;;;;18.17;9.00;;;11.30;99.90;;;;;;5064882;28;20444;-70
2023/10/09 06:34:52;;;;;;;18.10;8.47;;;11.30;99.90;;;;;;5062783;28;20549;-70
2023/10/09 06:37:34;;;;;;;15.63;9.30;;;11.30;99.90;;;;;;5067650;28;20547;-68
2023/10/09 06:42:51;;;;;;;20.50;9.30;;;11.30;99.90;;;;;;5063406;28;21172;-68
2023/10/09 06:45:19;;;;;;;27.80;9.20;;;11.40;99.90;;;;;;5067762;28;20869;-68
2023/10/09 06:47:55;;;;;;;12.40;8.97;;;11.40;99.90;;;;;;5067558;28;20503;-68
2023/10/09 06:50:28;;;;;;;17.77;7.90;;;11.50;99.90;;;;;;5065360;28;20537;-68
2023/10/09 06:52:57;;;;;;;14.70;8.90;;;11.50;99.90;;;;;;5066011;28;20452;-68
2023/10/09 06:55:33;;;;;;;15.10;9.00;;;11.50;99.90;;;;;;5067108;28;20490;-70
2023/10/09 06:58:01;;;;;;;15.80;9.50;;;11.50;99.90;;;;;;5067341;28;20999;-70
2023/10/09 07:03:14;;;;;;;17.03;9.53;;;11.60;99.90;;;;;;5067545;28;20438;-71
2023/10/09 07:06:00;;;;;;;13.90;8.73;;;11.60;99.90;;;;;;5067145;28;21191;-68
2023/10/09 07:08:31;;;;;;;11.97;8.97;;;11.60;99.90;;;;;;5063959;28;20466;-70
2023/10/09 07:11:03;;;;;;;13.87;8.90;;;11.70;99.90;;;;;;5067543;28;20444;-70
2023/10/09 07:13:36;;;;;;;17.87;8.90;;;11.70;99.90;;;;;;5064391;28;20861;-71
2023/10/09 07:18:54;;;;;;;15.97;10.17;;;11.70;99.90;;;;;;5067009;28;20427;-68
2023/10/09 07:21:27;;;;;;;16.30;9.13;;;11.80;99.90;;;;;;5066972;28;20455;-68
2023/10/09 07:23:58;;;;;;;27.53;9.93;;;11.80;99.90;;;;;;5062576;28;20439;-71
2023/10/09 07:26:36;;;;;;;22.23;9.80;;;11.80;99.90;;;;;;5056182;28;21012;-68
2023/10/09 07:29:16;;;;;;;18.90;9.23;;;11.90;99.90;;;;;;5053368;28;20833;-71
2023/10/09 07:31:45;;;;;;;20.40;10.37;;;12.00;99.90;;;;;;5052367;28;20502;-70
2023/10/09 07:36:57;;;;;;;22.60;8.93;;;12.00;99.90;;;;;;5052803;28;20607;-71
2023/10/09 07:39:34;;;;;;;14.53;9.80;;;12.10;99.90;;;;;;5053515;28;20444;-70
2023/10/09 07:42:15;;;;;;;15.07;10.00;;;12.20;99.90;;;;;;5053834;28;20444;-70
2023/10/09 07:44:46;;;;;;;21.17;10.43;;;12.30;99.90;;;;;;5047743;28;20972;-70
2023/10/09 07:47:17;;;;;;;18.90;10.30;;;12.40;99.90;;;;;;5052859;28;20861;-70
2023/10/09 07:49:52;;;;;;;23.13;10.93;;;12.50;99.90;;;;;;5053527;28;20980;-71
2023/10/09 07:52:21;;;;;;;14.40;9.70;;;12.60;99.90;;;;;;5053225;28;20834;-68
2023/10/09 07:54:52;;;;;;;17.27;9.77;;;12.80;99.90;;;;;;5053080;28;20492;-70
2023/10/09 07:57:25;;;;;;;19.83;10.00;;;12.80;99.90;;;;;;5052958;28;20474;-71
2023/10/09 08:00:00;;;;;;;18.90;9.77;;;12.90;99.90;;;;;;5052466;28;20466;-69
2023/10/09 08:02:32;;;;;;;15.03;9.17;;;12.90;99.90;;;;;;5049580;28;20452;-69
2023/10/09 08:05:18;;;;;;;24.60;10.20;;;13.00;99.90;;;;;;5050880;28;20531;-70
2023/10/09 08:07:55;;;;;;;20.90;9.70;;;13.00;99.90;;;;;;5051461;28;20464;-69
2023/10/09 08:16:03;;;;;;;22.23;10.90;;;12.90;99.90;;;;;;5132394;27;20562;-70
2023/10/09 08:18:31;;;;;;;17.03;9.70;;;12.90;99.90;;;;;;5105232;28;20969;-70
2023/10/09 08:23:52;;;;;;;20.73;10.17;;;12.90;99.90;;;;;;5115101;28;20429;-70
2023/10/09 08:26:29;;;;;;;20.77;10.57;;;12.90;99.90;;;;;;5118844;27;20473;-70
2023/10/09 08:31:46;;;;;;;17.77;10.60;;;12.90;99.90;;;;;;5112677;28;20432;-71
2023/10/09 08:34:24;;;;;;;27.17;11.33;;;13.00;99.90;;;;;;5113303;28;20543;-71
2023/10/09 08:36:52;;;;;;;19.57;11.37;;;13.00;99.90;;;;;;5108242;28;21254;-71
2023/10/09 08:39:25;;;;;;;24.83;11.30;;;13.10;99.90;;;;;;5112505;28;20449;-70
2023/10/09 08:41:52;;;;;;;17.23;11.07;;;13.20;99.90;;;;;;5112142;28;20469;-70
2023/10/09 08:44:23;;;;;;;21.23;10.07;;;13.20;99.90;;;;;;5119101;28;20905;-70
2023/10/09 08:46:51;;;;;;;19.10;11.80;;;13.20;99.90;;;;;;5113736;27;20561;-71
2023/10/09 08:49:18;;;;;;;22.17;11.90;;;13.20;99.90;;;;;;5112644;28;20450;-71
2023/10/09 08:51:46;;;;;;;22.03;12.87;;;13.30;99.90;;;;;;5114584;28;20448;-71
2023/10/09 08:54:14;;;;;;;25.77;11.43;;;13.30;99.90;;;;;;5117380;28;20920;-70
2023/10/09 08:56:49;;;;;;;18.43;10.90;;;13.30;99.90;;;;;;5118184;27;20882;-71
2023/10/09 08:59:18;;;;;;;21.77;10.77;;;13.40;99.90;;;;;;5117422;28;20430;-71
2023/10/09 09:01:44;;;;;;;28.47;12.50;;;13.40;99.90;;;;;;5117745;27;20472;-71
2023/10/09 09:04:32;;;;;;;17.83;10.93;;;13.50;99.90;;;;;;5117486;28;20438;-71
2023/10/09 09:06:59;;;;;;;18.90;11.90;;;13.60;99.90;;;;;;5115929;27;20964;-70
2023/10/09 09:09:28;;;;;;;19.80;11.70;;;13.60;99.90;;;;;;5118947;28;20471;-71
2023/10/09 09:11:55;;;;;;;24.03;11.03;;;13.70;99.90;;;;;;5116338;27;20496;-71
2023/10/09 09:14:36;;;;;;;23.20;12.43;;;13.80;99.90;;;;;;5118496;28;20563;-71
2023/10/09 09:17:05;;;;;;;18.77;12.23;;;13.80;99.90;;;;;;5112616;28;20477;-71
2023/10/09 09:19:37;;;;;;;24.20;12.13;;;14.00;99.90;;;;;;5115497;28;20455;-71
2023/10/09 09:22:12;;;;;;;19.80;12.03;;;14.10;99.90;;;;;;5116556;28;21031;-71
2023/10/09 09:24:45;;;;;;;21.80;12.60;;;14.20;99.90;;;;;;5116972;27;20451;-71
2023/10/09 09:27:18;;;;;;;19.40;12.43;;;14.30;99.90;;;;;;5104685;28;20462;-71
2023/10/09 09:29:52;;;;;;;22.33;12.13;;;14.40;99.90;;;;;;5100850;28;20441;-72
2023/10/09 09:32:29;;;;;;;24.07;12.40;;;14.40;99.90;;;;;;5104962;28;20444;-71
2023/10/09 09:35:00;;;;;;;25.43;13.07;;;14.40;99.90;;;;;;5093557;28;21078;-71
2023/10/09 09:37:29;;;;;;;29.73;13.67;;;14.40;99.90;;;;;;5097149;28;20457;-71
2023/10/09 09:40:00;;;;;;;25.10;11.57;;;14.30;99.90;;;;;;5103050;28;20429;-71
2023/10/09 09:42:28;;;;;;;21.13;12.33;;;14.30;99.90;;;;;;5106114;28;20420;-69
2023/10/09 09:44:57;;;;;;;18.40;11.83;;;14.40;99.90;;;;;;5103420;28;20437;-71
2023/10/09 09:47:26;;;;;;;21.27;12.57;;;14.40;99.90;;;;;;5102062;28;20469;-71
2023/10/09 09:49:59;;;;;;;22.10;12.07;;;14.40;99.90;;;;;;5101106;28;20962;-71
2023/10/09 09:52:37;;;;;;;24.13;12.23;;;14.40;99.90;;;;;;5105707;28;20818;-70
2023/10/09 09:55:07;;;;;;;23.70;12.50;;;14.50;99.90;;;;;;5102835;28;20460;-70
2023/10/09 09:57:39;;;;;;;19.30;12.53;;;14.50;99.90;;;;;;5105934;28;20489;-70
2023/10/09 10:00:27;;;;;;;21.57;13.07;;;14.50;99.90;;;;;;5092102;28;20438;-68
2023/10/09 10:02:58;;;;;;;22.63;11.57;;;14.50;99.90;;;;;;5093825;28;20458;-68
2023/10/09 10:05:29;;;;;;;22.70;12.07;;;14.50;99.90;;;;;;5095341;28;20522;-71
2023/10/09 10:07:58;;;;;;;20.07;12.20;;;14.50;99.90;;;;;;5094373;28;20470;-69
2023/10/09 10:10:38;;;;;;;30.13;12.63;;;14.50;99.90;;;;;;5097378;28;20508;-71
2023/10/09 10:13:05;;;;;;;21.93;12.67;;;14.40;99.90;;;;;;5102566;28;20478;-70
2023/10/09 10:16:08;;;;;;;22.70;12.67;;;14.50;99.90;;;;;;5087259;28;20911;-70
2023/10/09 10:18:54;;;;;;;20.93;12.77;;;14.60;99.90;;;;;;5096140;28;20458;-70
2023/10/09 10:21:33;;;;;;;19.83;11.90;;;14.70;99.90;;;;;;5116137;28;20442;-70
2023/10/09 10:24:14;;;;;;;22.73;13.50;;;14.80;99.90;;;;;;5105051;28;20435;-71
2023/10/09 10:26:41;;;;;;;21.43;10.90;;;15.00;99.90;;;;;;5099445;28;20550;-71
2023/10/09 10:29:26;;;;;;;18.77;9.50;;;15.10;99.90;;;;;;5103295;28;21017;-72
2023/10/09 10:31:55;;;;;;;18.30;10.33;;;15.20;99.90;;;;;;5100182;28;20424;-72
2023/10/09 10:34:23;;;;;;;25.97;11.63;;;15.40;99.90;;;;;;5098088;28;20456;-72
2023/10/09 10:36:52;;;;;;;17.60;11.57;;;15.60;99.90;;;;;;5090863;28;20530;-72
2023/10/09 10:39:23;;;;;;;22.97;12.20;;;15.70;99.90;;;;;;5096302;28;20447;-72
2023/10/09 10:41:59;;;;;;;22.20;12.63;;;15.70;99.90;;;;;;5097052;28;20466;-72
2023/10/09 10:44:37;;;;;;;24.80;12.93;;;15.70;99.90;;;;;;5106042;28;20506;-72
2023/10/09 10:47:05;;;;;;;21.57;12.73;;;15.70;99.90;;;;;;5092835;28;20535;-70
2023/10/09 10:49:37;;;;;;;20.50;11.50;;;15.80;99.90;;;;;;5106066;28;20434;-69
2023/10/09 10:52:17;;;;;;;22.63;10.77;;;15.90;99.90;;;;;;5099110;28;20433;-70
2023/10/09 10:55:01;;;;;;;21.03;10.50;;;16.20;99.90;;;;;;5105048;28;20863;-69
2023/10/09 10:57:30;;;;;;;17.30;9.63;;;16.30;99.90;;;;;;5098242;28;20474;-69
2023/10/09 11:00:13;;;;;;;18.80;10.30;;;16.50;99.90;;;;;;5104024;28;20450;-69
2023/10/09 11:02:44;;;;;;;18.63;9.80;;;16.60;99.90;;;;;;5098786;28;20470;-69
2023/10/09 11:05:23;;;;;;;20.80;9.83;;;16.70;99.90;;;;;;5104211;28;20410;-68
2023/10/09 11:07:52;;;;;;;20.10;9.50;;;16.90;99.90;;;;;;5101948;28;20545;-68
2023/10/09 11:10:28;;;;;;;18.23;9.47;;;17.00;99.90;;;;;;5097252;28;20443;-68
2023/10/09 11:15:45;;;;;;;19.03;8.33;;;17.30;99.90;;;;;;5097255;28;20905;-69
2023/10/09 11:18:19;;;;;;;12.80;6.63;;;17.40;99.90;;;;;;5095548;28;20508;-70
2023/10/09 11:20:56;;;;;;;13.67;5.40;;;17.60;99.90;;;;;;5100006;28;20499;-68
2023/10/09 11:23:35;;;;;;;17.03;6.10;;;17.80;99.90;;;;;;5104413;28;20431;-68
2023/10/09 11:26:21;;;;;;;9.23;5.60;;;17.90;99.90;;;;;;5102219;28;20960;-68
2023/10/09 11:28:49;;;;;;;16.37;7.90;;;18.10;99.90;;;;;;5100180;28;20421;-68
2023/10/09 11:31:16;;;;;;;15.67;7.70;;;18.20;99.90;;;;;;5103545;28;20417;-68
2023/10/09 11:33:46;;;;;;;14.47;7.43;;;18.20;99.90;;;;;;5101248;28;20438;-68
2023/10/09 11:36:13;;;;;;;18.23;9.07;;;18.20;99.90;;;;;;5097988;28;20478;-69
2023/10/09 11:38:39;;;;;;;17.87;9.03;;;18.20;99.90;;;;;;5106977;28;20438;-69
2023/10/09 11:41:22;;;;;;;16.43;7.43;;;18.30;99.90;;;;;;5104627;28;20512;-69
2023/10/09 11:43:52;;;;;;;12.80;7.30;;;18.20;99.90;;;;;;5106318;28;20955;-69
2023/10/09 11:46:38;;;;;;;13.93;7.77;;;18.30;99.90;;;;;;5104259;28;20836;-69
2023/10/09 11:49:26;;;;;;;12.80;6.67;;;18.30;99.90;;;;;;5104357;28;20425;-69
2023/10/09 11:52:35;;;;;;;17.37;7.53;;;18.40;99.90;;;;;;5106100;28;20420;-69
2023/10/09 11:54:56;;;;;;;14.73;6.77;;;18.40;99.90;;;;;;5101125;28;20456;-69
2023/10/09 11:57:31;;;;;;;17.37;7.23;;;18.50;99.90;;;;;;5100034;28;20481;-69
2023/10/09 11:59:59;;;;;;;10.63;6.53;;;18.50;99.90;;;;;;5104741;28;20253;-69
2023/10/09 12:02:26;;;;;;;23.10;9.13;;;18.60;99.90;;;;;;5106521;28;20454;-69
2023/10/09 12:04:55;;;;;;;13.47;8.40;;;18.60;99.90;;;;;;5105942;28;20457;-69
2023/10/09 12:07:23;;;;;;;12.50;7.13;;;18.70;99.90;;;;;;5106316;28;20535;-69
2023/10/09 12:09:51;;;;;;;12.80;6.87;;;18.80;99.90;;;;;;5097879;28;20450;-69
2023/10/09 12:12:18;;;;;;;19.30;8.00;;;18.80;99.90;;;;;;5092698;28;20453;-68
2023/10/09 12:14:50;;;;;;;17.57;7.07;;;18.90;99.90;;;;;;5092893;28;20820;-68
2023/10/09 12:17:16;;;;;;;18.20;8.03;;;18.90;99.90;;;;;;5095531;28;20995;-68
2023/10/09 12:19:43;;;;;;;18.53;7.43;;;18.90;99.90;;;;;;5103242;28;20868;-68
2023/10/09 12:22:15;;;;;;;15.83;6.90;;;19.00;99.90;;;;;;5098796;28;20468;-71
2023/10/09 12:24:43;;;;;;;16.20;7.10;;;18.90;99.90;;;;;;5107790;28;20483;-68
2023/10/09 12:27:11;;;;;;;16.97;6.60;;;18.90;99.90;;;;;;5105221;28;21023;-70
2023/10/09 12:29:38;;;;;;;13.97;7.57;;;18.80;99.90;;;;;;5106713;28;20808;-68
2023/10/09 12:32:10;;;;;;;16.83;7.90;;;18.80;99.90;;;;;;5103682;28;20511;-68
2023/10/09 12:34:38;;;;;;;14.47;7.53;;;18.80;99.90;;;;;;5101298;28;20454;-68
2023/10/09 12:37:06;;;;;;;13.83;7.10;;;18.80;99.90;;;;;;5104100;28;20517;-68
2023/10/09 12:39:34;;;;;;;20.90;7.73;;;18.90;99.90;;;;;;5096906;28;20454;-68
2023/10/09 12:42:06;;;;;;;21.53;8.20;;;19.00;99.90;;;;;;5097039;28;20456;-68
2023/10/09 12:44:33;;;;;;;20.90;7.60;;;19.00;99.90;;;;;;5093838;28;20453;-68
2023/10/09 12:47:04;;;;;;;21.87;8.10;;;19.00;99.90;;;;;;5095641;28;21056;-70
2023/10/09 12:49:32;;;;;;;12.27;6.80;;;19.00;99.90;;;;;;5095567;28;20808;-68
2023/10/09 12:52:00;;;;;;;15.83;7.07;;;19.10;99.90;;;;;;5096751;28;20484;-68
2023/10/09 12:54:27;;;;;;;13.20;7.20;;;19.10;99.90;;;;;;5107706;28;20442;-68
2023/10/09 12:56:54;;;;;;;23.73;7.30;;;19.10;99.90;;;;;;5107134;28;20806;-68
2023/10/09 12:59:23;;;;;;;17.43;7.70;;;19.10;99.90;;;;;;5105600;28;20947;-68
2023/10/09 13:01:52;;;;;;;18.30;7.57;;;19.20;99.90;;;;;;5110242;28;20491;-69
2023/10/09 13:04:22;;;;;;;19.33;7.43;;;19.10;99.90;;;;;;5110727;28;20529;-68
2023/10/09 13:06:53;;;;;;;20.00;7.10;;;19.10;99.90;;;;;;5111627;28;20497;-69
2023/10/09 13:09:32;;;;;;;20.20;7.10;;;19.10;99.90;;;;;;5106204;28;20481;-68
2023/10/09 13:12:00;;;;;;;19.87;7.87;;;19.10;99.90;;;;;;5094390;28;20477;-68
2023/10/09 13:14:27;;;;;;;24.10;7.77;;;19.10;99.90;;;;;;5092814;28;20455;-68
2023/10/09 13:16:54;;;;;;;17.57;8.00;;;19.10;99.90;;;;;;5097683;28;20498;-68
2023/10/09 13:19:24;;;;;;;17.00;7.03;;;19.00;99.90;;;;;;5094233;28;20443;-68
2023/10/09 13:21:52;;;;;;;18.67;7.53;;;19.00;99.90;;;;;;5094334;28;20963;-69
2023/10/09 13:24:24;;;;;;;21.70;7.93;;;19.10;99.90;;;;;;5110246;28;20939;-69
2023/10/09 13:26:57;;;;;;;16.30;8.17;;;19.10;99.90;;;;;;5112160;28;20493;-68
2023/10/09 13:29:24;;;;;;;16.33;7.60;;;19.10;99.90;;;;;;5111009;28;20450;-68
2023/10/09 13:31:57;;;;;;;16.57;7.60;;;19.10;99.90;;;;;;5111995;28;20997;-70
2023/10/09 13:34:27;;;;;;;16.73;7.20;;;19.10;99.90;;;;;;5101652;28;20421;-69
2023/10/09 13:36:58;;;;;;;20.53;7.43;;;19.10;99.90;;;;;;5099626;28;20916;-68
2023/10/09 13:39:26;;;;;;;23.90;7.60;;;19.10;99.90;;;;;;5111551;28;20420;-68
2023/10/09 13:41:58;;;;;;;17.63;8.10;;;19.10;99.90;;;;;;5108234;27;20461;-69
2023/10/09 13:44:27;;;;;;;15.03;7.20;;;19.10;99.90;;;;;;5098861;28;20533;-69
2023/10/09 13:46:54;;;;;;;17.80;7.57;;;19.10;99.90;;;;;;5108067;28;20462;-69
2023/10/09 13:49:22;;;;;;;16.17;7.40;;;19.10;99.90;;;;;;5110646;28;20443;-69
2023/10/09 13:51:49;;;;;;;21.90;7.43;;;19.10;99.90;;;;;;5112337;28;20449;-69
2023/10/09 13:54:28;;;;;;;23.73;7.10;;;19.10;99.90;;;;;;5110906;28;20450;-69
2023/10/09 13:56:55;;;;;;;14.00;7.90;;;19.10;99.90;;;;;;5104182;28;20517;-69
2023/10/09 13:59:22;;;;;;;11.20;6.40;;;19.10;99.90;;;;;;5110165;28;20830;-69
2023/10/09 14:01:49;;;;;;;17.70;6.90;;;19.10;99.90;;;;;;5111239;28;20465;-70
2023/10/09 14:04:18;;;;;;;23.40;9.20;;;19.10;99.90;;;;;;5110139;27;20461;-69